Latest Coastal Weather Observations for Hogan Island

IDV60701

Issued at 10:11 pm EST Friday 29 April 2016 (issued every 10 minutes, with the page automatically refreshed every 10 minutes)

About coastal observations | Map of coastal stations | Coastal observations for VIC | Marine services | Other Formats
Station Details ID: 200838 Name: HOGAN ISLAND Lat: -39.22 Lon: 146.98 Height: 116.0 m
Data from the previous 72 hours. | See also: Recent months at Hogan Island
Date/Time
EST
Temp

°C
Wind Pressure Rain
since 9am
mm
Weather Cloud Vis
km
Sea
Height
m
Swell
Dir
 
Speed
knots
Gust
knots
hPa Trend Height
m
Period
s
Dir
29/10:00pm 14.9 N 7 9 1014.7 - 7.8 - - - - - - -
29/09:30pm 15.0 NNE 6 7 1014.5 - 7.8 - - - - - - -
29/09:00pm 15.0 NNE 6 6 1014.3 - 7.8 - - - - - - -
29/08:30pm 15.1 N 4 5 1014.1 - 7.8 - - - - - - -
29/08:00pm 15.2 N 4 5 1013.9 - 7.8 - - - - - - -
29/07:30pm 14.8 W 4 6 1014.0 - 7.8 - - - - - - -
29/07:00pm 14.9 N 6 8 1013.5 - 7.8 - - - - - - -
29/06:30pm 15.1 N 7 9 1013.5 - 7.8 - - - - - - -
29/06:00pm 15.2 NNW 9 11 1013.6 - 7.8 - - - - - - -
29/05:30pm 14.9 NW 8 11 1013.5 - 7.6 - - - - - - -
29/05:00pm 14.9 WNW 13 16 1013.8 - 7.4 - - - - - - -
29/04:30pm 15.1 WNW 20 24 1014.0 - 6.6 - - - - - - -
29/04:00pm 15.1 WNW 25 30 1014.1 - 5.0 - - - - - - -
29/03:30pm 15.8 NW 19 25 1014.0 - 2.0 - - - - - - -
29/03:00pm 16.1 WNW 17 19 1013.5 - 1.0 - - - - - - -
29/02:30pm 16.9 NW 18 23 1013.5 - 0.6 - - - - - - -
29/02:00pm 17.0 WNW 17 19 1013.3 - 0.6 - - - - - - -
29/01:30pm 16.3 W 15 17 1013.1 - 0.6 - - - - - - -
29/01:00pm 16.3 W 17 19 1013.5 - 0.6 - - - - - - -
29/12:30pm 16.1 W 23 27 1014.1 - 0.2 - - - - - - -
29/12:00pm 17.0 WNW 21 25 1014.1 - 0.0 - - - - - - -
29/11:53am 17.3 WNW 19 22 1014.3 - 0.0 - - - - - - -
29/11:30am 18.6 NW 20 27 1014.5 - 0.0 - - - - - - -
29/11:16am 18.3 NNW 18 23 1014.6 - 0.0 - - - - - - -
29/11:00am 20.5 N 21 25 1014.1 - 0.0 - - - - - - -
29/10:30am 20.7 N 23 28 1014.1 - 0.0 - - - - - - -
29/10:00am 20.0 N 20 24 1014.4 - 0.0 - - - - - - -
29/09:30am 19.0 NNE 19 23 1015.0 - 0.0 - - - - - - -
29/09:00am 19.1 N 20 23 1015.2 - 0.0 - - - - - - -
29/08:30am 19.4 N 20 25 1015.4 - 0.0 - - - - - - -
29/08:00am 19.7 N 24 28 1015.3 - 0.0 - - - - - - -
29/07:30am 19.2 N 25 30 1015.4 - 0.0 - - - - - - -
29/07:00am 19.3 N 25 30 1015.2 - 0.0 - - - - - - -
29/06:30am 18.7 N 24 28 1015.2 - 0.0 - - - - - - -
29/06:00am 20.1 N 24 29 1015.2 - 0.0 - - - - - - -
29/05:30am 20.1 N 23 28 1015.5 - 0.0 - - - - - - -
29/05:00am 19.7 N 23 27 1015.4 - 0.0 - - - - - - -
29/04:30am 19.4 N 23 28 1015.1 - 0.0 - - - - - - -
29/04:00am 18.1 N 19 23 1015.3 - 0.0 - - - - - - -
29/03:30am 18.5 N 19 23 1015.5 - 0.0 - - - - - - -
29/03:00am 17.1 NNE 15 19 1015.7 - 0.0 - - - - - - -
29/02:30am 17.0 NNE 15 18 1016.2 - 0.0 - - - - - - -
29/02:00am 17.2 NNE 16 18 1016.6 - 0.0 - - - - - - -
29/01:30am 17.2 NNE 15 18 1016.7 - 0.0 - - - - - - -
29/01:00am 17.5 NNE 15 21 1016.9 - 0.0 - - - - - - -
29/12:30am 17.1 NE 14 18 1017.1 - 0.0 - - - - - - -
29/12:00am 16.7 ENE 12 15 1017.2 - 0.0 - - - - - - -
 
Date/Time
EST
Temp

°C
Wind Pressure Rain
since 9am
mm
Weather Cloud Vis
km
Sea
Height
m
Swell
Dir
 
Speed
knots
Gust
knots
hPa Trend Height
m
Period
s
Dir
28/11:30pm 16.5 ENE 16 19 1017.4 - 0.0 - - - - - - -
28/11:00pm 16.8 ENE 16 20 1017.8 - 0.0 - - - - - - -
28/10:30pm 16.3 ENE 12 15 1017.9 - 0.0 - - - - - - -
28/10:00pm 16.4 ENE 12 15 1018.1 - 0.0 - - - - - - -
28/09:30pm 16.5 ENE 12 15 1018.5 - 0.0 - - - - - - -
28/09:00pm 16.3 ENE 9 10 1018.3 - 0.0 - - - - - - -
28/08:30pm 16.2 ENE 11 13 1018.1 - 0.0 - - - - - - -
28/08:00pm 15.8 ENE 10 12 1018.1 - 0.0 - - - - - - -
28/07:30pm 16.3 E 11 13 1018.1 - 0.0 - - - - - - -
28/07:00pm 16.2 E 7 8 1018.2 - 0.0 - - - - - - -
28/06:30pm 16.9 E 3 6 1018.2 - 0.0 - - - - - - -
28/06:00pm 16.6 SSW 5 8 1018.3 - 0.0 - - - - - - -
28/05:30pm 16.3 WSW 11 13 1018.1 - 0.0 - - - - - - -
28/05:00pm 16.7 WSW 12 16 1018.0 - 0.0 - - - - - - -
28/04:30pm 16.4 W 12 15 1018.2 - 0.0 - - - - - - -
28/04:00pm 17.6 WSW 8 9 1018.1 - 0.0 - - - - - - -
28/03:30pm 18.0 WSW 8 11 1017.9 - 0.0 - - - - - - -
28/03:00pm 19.2 WSW 8 9 1017.4 - 0.0 - - - - - - -
28/02:30pm 19.5 W 8 11 1017.2 - 0.0 - - - - - - -
28/02:00pm 19.9 W 13 16 1017.2 - 0.0 - - - - - - -
28/01:30pm 19.7 W 10 13 1017.2 - 0.0 - - - - - - -
28/01:00pm 21.0 W 12 15 1017.3 - 0.0 - - - - - - -
28/12:30pm 19.7 W 20 23 1017.4 - 0.0 - - - - - - -
28/12:00pm 19.5 WNW 16 21 1017.9 - 0.0 - - - - - - -
28/11:30am 22.4 NW 15 17 1018.0 - 0.0 - - - - - - -
28/11:00am 20.5 NNW 17 20 1017.6 - 0.0 - - - - - - -
28/10:30am 19.8 NNW 18 23 1017.5 - 0.0 - - - - - - -
28/10:00am 20.1 N 16 21 1017.1 - 0.0 - - - - - - -
28/09:30am 20.5 N 16 21 1016.9 - 0.0 - - - - - - -
28/09:00am 20.3 NNW 17 22 1017.0 - 0.0 - - - - - - -
28/08:30am 20.5 N 17 22 1016.9 - 0.0 - - - - - - -
28/08:00am 20.3 NNW 17 23 1016.5 - 0.0 - - - - - - -
28/07:41am 20.1 N 17 27 1016.3 - 0.0 - - - - - - -
28/07:30am 20.4 NNW 20 25 1016.1 - 0.0 - - - - - - -
28/07:00am 20.9 NNW 19 26 1015.8 - 0.0 - - - - - - -
28/06:30am 20.5 N 18 22 1015.9 - 0.0 - - - - - - -
28/06:00am 20.1 N 15 19 1015.9 - 0.0 - - - - - - -
28/05:30am 20.1 N 15 19 1016.0 - 0.0 - - - - - - -
28/05:00am 19.8 N 13 17 1015.8 - 0.0 - - - - - - -
28/04:30am 19.4 N 13 18 1015.8 - 0.0 - - - - - - -
28/04:00am 19.4 N 15 20 1015.7 - 0.0 - - - - - - -
28/03:30am 18.3 N 14 18 1015.5 - 0.0 - - - - - - -
28/03:00am 19.1 N 16 20 1015.5 - 0.0 - - - - - - -
28/02:30am 18.7 N 18 22 1015.9 - 0.0 - - - - - - -
28/02:00am 19.4 N 21 25 1016.0 - 0.0 - - - - - - -
28/01:30am 19.9 N 19 24 1016.0 - 0.0 - - - - - - -
28/01:00am 20.8 N 22 29 1015.9 - 0.0 - - - - - - -
28/12:30am 21.3 N 24 31 1015.6 - 0.0 - - - - - - -
28/12:00am 19.7 N 24 29 1015.9 - 0.0 - - - - - - -
 
Date/Time
EST
Temp

°C
Wind Pressure Rain
since 9am
mm
Weather Cloud Vis
km
Sea
Height
m
Swell
Dir
 
Speed
knots
Gust
knots
hPa Trend Height
m
Period
s
Dir
27/11:30pm 21.4 N 23 28 1016.2 - 0.0 - - - - - - -
27/11:00pm 21.0 N 23 27 1016.6 - 0.0 - - - - - - -
27/10:30pm 19.2 N 21 25 1016.8 - 0.0 - - - - - - -
27/10:00pm 16.4 N 16 19 1017.1 - 0.0 - - - - - - -
27/09:30pm 16.5 NNE 14 16 1017.2 - 0.0 - - - - - - -
27/09:00pm 16.8 N 17 21 1017.2 - 0.0 - - - - - - -
27/08:30pm 17.5 N 20 24 1017.2 - 0.0 - - - - - - -
27/08:00pm 17.3 N 20 23 1017.5 - 0.0 - - - - - - -
27/07:30pm 17.6 NNE 21 24 1017.4 - 0.0 - - - - - - -
27/06:30pm 19.1 N 21 24 1017.5 - 0.0 - - - - - - -
27/06:00pm 18.4 NNE 21 24 1017.0 - 0.0 - - - - - - -
27/05:30pm 18.0 NNE 19 23 1016.8 - 0.0 - - - - - - -
27/05:00pm 18.8 NNE 20 24 1016.8 - 0.0 - - - - - - -
27/04:30pm 19.6 NNE 22 25 1016.9 - 0.0 - - - - - - -
27/04:00pm 19.6 NNE 21 26 1016.9 - 0.0 - - - - - - -
27/03:30pm 19.2 NNE 19 23 1017.1 - 0.0 - - - - - - -
27/03:00pm 18.6 NNE 18 21 1017.0 - 0.0 - - - - - - -
27/02:30pm 18.0 NNE 17 21 1017.1 - 0.0 - - - - - - -
27/02:00pm 17.7 NNE 17 20 1017.4 - 0.0 - - - - - - -
27/01:30pm 19.9 N 18 23 1017.6 - 0.0 - - - - - - -
27/01:00pm 20.7 N 18 22 1018.2 - 0.0 - - - - - - -
27/12:30pm 20.7 NNE 14 17 1018.7 - 0.0 - - - - - - -
27/12:00pm 20.8 NNE 15 18 1019.3 - 0.0 - - - - - - -
27/11:30am 20.6 NNE 14 18 1019.7 - 0.0 - - - - - - -
27/11:00am 21.8 N 13 17 1020.1 - 0.0 - - - - - - -
27/10:30am 23.6 N 12 17 1020.3 - 0.0 - - - - - - -
27/10:00am 20.4 NNE 14 19 1020.8 - 0.0 - - - - - - -
27/09:30am 19.4 N 11 14 1021.2 - 0.0 - - - - - - -
27/09:00am 21.2 NNW 17 24 1021.0 - 0.0 - - - - - - -
27/08:53am 20.9 NNW 16 24 1021.1 - 0.0 - - - - - - -
27/08:30am 19.0 N 9 13 1021.4 - 0.0 - - - - - - -
27/08:00am 16.9 N 11 13 1021.4 - 0.0 - - - - - - -
27/07:30am 15.9 N 9 12 1021.1 - 0.0 - - - - - - -
27/07:00am 15.1 N 10 13 1020.9 - 0.0 - - - - - - -
27/06:30am 15.7 N 12 15 1020.9 - 0.0 - - - - - - -
27/06:00am 15.8 N 10 13 1020.6 - 0.0 - - - - - - -
27/05:30am 15.1 NNE 8 10 1020.6 - 0.0 - - - - - - -
27/05:00am 15.5 NNE 9 11 1020.7 - 0.0 - - - - - - -
27/04:30am 15.2 NNE 11 11 1020.7 - 0.0 - - - - - - -
27/04:00am 15.6 N 13 14 1020.7 - 0.0 - - - - - - -
27/03:30am 15.8 N 13 14 1020.9 - 0.0 - - - - - - -
27/03:00am 15.3 N 12 13 1021.1 - 0.0 - - - - - - -
27/02:30am 15.7 N 12 13 1021.6 - 0.0 - - - - - - -
27/02:00am 15.5 N 13 14 1022.0 - 0.0 - - - - - - -
27/01:30am 15.8 N 14 15 1022.3 - 0.0 - - - - - - -
27/01:00am 15.4 N 13 15 1022.4 - 0.0 - - - - - - -
27/12:30am 15.5 NNE 14 16 1022.7 - 0.0 - - - - - - -
27/12:00am 15.4 N 15 17 1022.9 - 0.0 - - - - - - -
 
Date/Time
EST
Temp

°C
Wind Pressure Rain
since 9am
mm
Weather Cloud Vis
km
Sea
Height
m
Swell
Dir
 
Speed
knots
Gust
knots
hPa Trend Height
m
Period
s
Dir
26/11:30pm 15.3 N 13 15 1023.2 - 0.0 - - - - - - -
26/11:00pm 15.6 NNE 15 17 1023.4 - 0.0 - - - - - - -
26/10:30pm 15.8 NNE 16 18 1023.5 - 0.0 - - - - - - -

Other Formats:

Comma delimited format used in spreadsheet applications
http://www.bom.gov.au/fwo/IDV60701/IDV60701.94949.axf

JavaScript Object Notation format (JSON) in row-major order
http://www.bom.gov.au/fwo/IDV60701/IDV60701.94949.json